Time;durP1;ratioP1;P1;durP2;ratioP2;P2;SDS_P1;SDS_P2;PMS_P1;PMS_P2;Temp;Humidity;BMP_temperature;BMP_pressure;BME280_temperature;BME280_humidity;BME280_pressure;Samples;Min_cycle;Max_cycle;Signal;HPM_P1;HPM_P2
2022/11/30 00:01:23;;;;;;;71.65;40.40;;;;;;;2.58;83.53;101832.16;1758588;79;26032;-83
2022/11/30 00:03:55;;;;;;;70.22;39.20;;;;;;;2.59;83.51;101824.11;1743900;79;25896;-82
2022/11/30 00:06:22;;;;;;;78.12;41.55;;;;;;;2.59;83.55;101835.19;1751853;79;25794;-83
2022/11/30 00:08:55;;;;;;;68.60;38.40;;;;;;;2.57;83.45;101832.63;1766387;79;27799;-82
2022/11/30 00:11:24;;;;;;;74.75;39.78;;;;;;;2.58;83.55;101826.40;1753353;79;25946;-84
2022/11/30 00:13:50;;;;;;;72.08;40.15;;;;;;;2.57;83.43;101833.95;1761730;79;25789;-83
2022/11/30 00:16:16;;;;;;;73.10;40.67;;;;;;;2.50;83.00;101824.77;1759563;79;25943;-83
2022/11/30 00:18:43;;;;;;;72.70;41.00;;;;;;;2.49;83.18;101827.02;1753839;79;25795;-82
2022/11/30 00:21:13;;;;;;;76.28;40.28;;;;;;;2.46;83.18;101825.89;1744519;79;28263;-82
2022/11/30 00:23:42;;;;;;;76.67;41.70;;;;;;;2.44;82.90;101833.59;1748990;79;25980;-82
2022/11/30 00:26:13;;;;;;;80.07;41.95;;;;;;;2.40;83.00;101836.90;1761022;79;25845;-81
2022/11/30 00:28:40;;;;;;;73.95;41.00;;;;;;;2.42;83.27;101841.61;1764618;79;25801;-82
2022/11/30 00:31:10;;;;;;;77.42;39.80;;;;;;;2.44;83.39;101841.02;1771171;79;25796;-81
2022/11/30 00:33:37;;;;;;;77.03;42.77;;;;;;;2.45;83.32;101843.20;1759227;79;27441;-82
2022/11/30 00:36:09;;;;;;;73.35;40.48;;;;;;;2.42;83.32;101844.75;1768236;79;26142;-81
2022/11/30 00:38:36;;;;;;;87.35;47.95;;;;;;;2.44;83.47;101848.95;1754381;79;25780;-81
2022/11/30 00:41:02;;;;;;;86.20;43.78;;;;;;;2.47;83.45;101850.55;1761556;79;25802;-82
2022/11/30 00:43:29;;;;;;;80.20;44.08;;;;;;;2.46;83.33;101854.16;1773288;79;25853;-82
2022/11/30 00:45:57;;;;;;;76.67;42.98;;;;;;;2.44;83.04;101847.63;1764750;79;27443;-81
2022/11/30 00:48:23;;;;;;;79.15;41.90;;;;;;;2.40;83.00;101850.59;1755345;79;26240;-82
2022/11/30 00:50:50;;;;;;;74.97;41.83;;;;;;;2.39;83.11;101849.77;1761897;79;25787;-81
2022/11/30 00:53:18;;;;;;;77.05;42.27;;;;;;;2.37;83.11;101849.02;1730676;79;26757;-81
2022/11/30 00:55:46;;;;;;;74.97;42.10;;;;;;;2.40;83.25;101848.80;1766383;79;26451;-82
2022/11/30 00:58:13;;;;;;;78.95;43.48;;;;;;;2.36;82.96;101853.92;1757869;79;28347;-82
2022/11/30 01:00:41;;;;;;;74.87;42.48;;;;;;;2.33;83.15;101849.69;1755497;79;25932;-81
2022/11/30 01:03:08;;;;;;;81.57;43.55;;;;;;;2.35;83.19;101858.36;1750309;79;25875;-82
2022/11/30 01:05:36;;;;;;;75.28;42.58;;;;;;;2.36;83.18;101860.53;1758819;79;25977;-82
2022/11/30 01:08:06;;;;;;;76.57;41.08;;;;;;;2.35;83.30;101858.36;1774858;79;25982;-81
2022/11/30 01:10:34;;;;;;;76.92;42.75;;;;;;;2.39;83.58;101857.70;1748501;79;27465;-81
2022/11/30 01:13:01;;;;;;;83.12;43.98;;;;;;;2.44;83.62;101861.36;1770482;79;25773;-82
2022/11/30 01:15:29;;;;;;;77.75;42.38;;;;;;;2.48;83.46;101860.19;1763028;79;25827;-81
2022/11/30 01:17:57;;;;;;;72.22;39.53;;;;;;;2.44;83.07;101857.39;1761718;79;25784;-82
2022/11/30 01:20:23;;;;;;;74.37;42.50;;;;;;;2.42;83.09;101857.97;1773415;79;25849;-81
2022/11/30 01:22:50;;;;;;;75.62;41.70;;;;;;;2.39;82.80;101855.52;1761262;79;27435;-81
2022/11/30 01:25:16;;;;;;;68.25;37.88;;;;;;;2.32;82.66;101857.27;1763750;79;26359;-81
2022/11/30 01:27:42;;;;;;;72.58;40.28;;;;;;;2.30;82.69;101858.31;1761666;79;25863;-82
2022/11/30 01:30:10;;;;;;;70.67;39.75;;;;;;;2.29;82.96;101861.42;1766741;79;26701;-81
2022/11/30 01:32:37;;;;;;;71.53;39.35;;;;;;;2.31;83.04;101861.31;1767488;79;25619;-81
2022/11/30 01:35:04;;;;;;;66.17;38.33;;;;;;;2.28;82.92;101859.75;1752488;79;27420;-81
2022/11/30 01:37:30;;;;;;;72.05;40.35;;;;;;;2.28;83.08;101858.89;1752867;79;25774;-81
2022/11/30 01:39:56;;;;;;;71.20;38.28;;;;;;;2.29;82.99;101860.56;1759347;79;25862;-81
2022/11/30 01:42:23;;;;;;;68.07;38.95;;;;;;;2.26;82.90;101862.12;1762319;79;25750;-81
2022/11/30 01:44:56;;;;;;;64.70;36.28;;;;;;;2.27;83.10;101862.47;1759135;79;25755;-81
2022/11/30 01:47:33;;;;;;;69.32;37.10;;;;;;;2.27;83.08;101859.83;1755544;79;27595;-83
2022/11/30 01:50:17;;;;;;;66.50;36.17;;;;;;;2.30;83.25;101858.31;1751558;79;25781;-81
2022/11/30 01:52:49;;;;;;;62.33;34.73;;;;;;;2.31;83.27;101852.91;1763193;79;26121;-82
2022/11/30 01:55:20;;;;;;;61.08;35.17;;;;;;;2.33;83.40;101855.48;1760521;79;25762;-81
2022/11/30 01:57:55;;;;;;;60.05;33.30;;;;;;;2.34;83.28;101861.97;1757900;79;25976;-81
2022/11/30 02:00:23;;;;;;;59.20;34.08;;;;;;;2.35;83.40;101862.33;1767174;79;27649;-80
2022/11/30 02:03:17;;;;;;;64.05;34.10;;;;;;;2.36;83.32;101864.50;1759510;79;25803;-81
2022/11/30 02:05:43;;;;;;;59.58;31.95;;;;;;;2.36;83.37;101865.83;1766250;79;25915;-81
2022/11/30 02:08:10;;;;;;;55.03;31.62;;;;;;;2.35;83.48;101872.90;1768496;80;26260;-82
2022/11/30 02:10:41;;;;;;;53.75;30.05;;;;;;;2.35;83.40;101873.40;1766168;79;26171;-82
2022/11/30 02:13:34;;;;;;;;;;;;;;;2.32;83.22;101875.77;1756169;79;27455;-80
2022/11/30 02:16:38;;;;;;;57.30;29.20;;;;;;;2.30;83.29;101872.85;1748992;79;25809;-81
2022/11/30 02:19:43;;;;;;;47.67;27.50;;;;;;;2.26;83.20;101872.22;1769042;79;25901;-82
2022/11/30 02:22:37;;;;;;;46.25;27.20;;;;;;;2.26;83.17;101872.22;1772162;79;26341;-81
2022/11/30 02:25:47;;;;;;;52.05;27.22;;;;;;;2.23;83.10;101872.88;1764901;79;25869;-82
2022/11/30 02:28:42;;;;;;;45.08;24.37;;;;;;;2.21;83.03;101873.46;1761064;79;27435;-82
2022/11/30 02:31:14;;;;;;;43.17;25.25;;;;;;;2.19;82.98;101868.75;1770380;79;25959;-81
2022/11/30 02:33:41;;;;;;;44.55;25.43;;;;;;;2.19;83.04;101876.22;1773279;79;25761;-82
2022/11/30 02:36:09;;;;;;;45.78;25.43;;;;;;;2.21;83.18;101877.42;1770978;79;25828;-81
2022/11/30 02:38:37;;;;;;;42.30;25.75;;;;;;;2.22;83.13;101874.67;1776116;79;26475;-81
2022/11/30 02:41:03;;;;;;;47.40;25.65;;;;;;;2.23;83.17;101880.34;1768590;79;27437;-81
2022/11/30 02:43:31;;;;;;;38.98;23.75;;;;;;;2.20;82.78;101880.53;1767327;79;26009;-81
2022/11/30 02:46:27;;;;;;;39.42;22.67;;;;;;;2.16;82.73;101877.73;1767354;79;26681;-81
2022/11/30 02:49:10;;;;;;;43.17;23.18;;;;;;;2.18;82.86;101880.29;1747196;79;25844;-81
2022/11/30 02:51:39;;;;;;;43.25;24.18;;;;;;;2.19;82.89;101889.43;1764410;79;25646;-81
2022/11/30 02:54:05;;;;;;;43.75;25.23;;;;;;;2.23;83.01;101878.16;1772462;79;27428;-82
2022/11/30 02:56:32;;;;;;;45.60;25.12;;;;;;;2.25;82.94;101885.05;1749859;80;26365;-82
2022/11/30 02:58:59;;;;;;;36.65;22.60;;;;;;;2.27;83.04;101883.62;1763933;79;25859;-83
2022/11/30 03:01:25;;;;;;;36.90;21.93;;;;;;;2.25;82.80;101880.23;1772042;79;25758;-82
2022/11/30 03:03:52;;;;;;;36.05;20.82;;;;;;;2.22;82.54;101886.56;1775016;79;25597;-83
2022/11/30 03:06:18;;;;;;;34.58;20.32;;;;;;;2.18;82.52;101883.76;1775337;79;27528;-83
2022/11/30 03:08:44;;;;;;;33.60;20.97;;;;;;;2.16;82.52;101890.12;1777218;79;25772;-82
2022/11/30 03:11:10;;;;;;;36.73;21.50;;;;;;;2.15;82.57;101895.02;1755685;79;25820;-81
2022/11/30 03:13:37;;;;;;;38.00;21.73;;;;;;;2.15;82.65;101894.55;1764106;79;25873;-82
2022/11/30 03:16:09;;;;;;;38.40;23.57;;;;;;;2.18;82.84;101893.50;1774464;80;26264;-81
2022/11/30 03:18:36;;;;;;;40.08;23.18;;;;;;;2.22;82.94;101893.67;1780869;79;27454;-82
2022/11/30 03:21:08;;;;;;;39.38;23.05;;;;;;;2.24;83.03;101897.91;1784864;78;25781;-83
2022/11/30 03:23:35;;;;;;;41.37;23.98;;;;;;;2.26;82.98;101903.95;1763823;79;25804;-82
2022/11/30 03:26:04;;;;;;;34.75;20.30;;;;;;;2.22;82.67;101897.64;1747181;79;25917;-82
2022/11/30 03:28:31;;;;;;;33.15;20.82;;;;;;;2.17;82.47;101897.08;1803985;78;25317;-82
2022/11/30 03:30:57;;;;;;;32.13;19.48;;;;;;;2.11;82.33;101898.34;1795627;78;27484;-81
2022/11/30 03:33:24;;;;;;;36.40;19.45;;;;;;;2.11;82.56;101898.81;1807537;78;26113;-82
2022/11/30 03:36:06;;;;;;;33.88;20.37;;;;;;;2.08;82.71;101895.04;1758450;79;25797;-82
2022/11/30 03:38:33;;;;;;;35.40;20.95;;;;;;;2.08;82.62;101899.86;1788916;78;25522;-82
2022/11/30 03:41:07;;;;;;;34.35;21.10;;;;;;;2.09;82.73;101902.03;1794927;78;25809;-82
2022/11/30 03:43:34;;;;;;;35.17;21.02;;;;;;;2.08;82.64;101901.18;1789877;79;27471;-82
2022/11/30 03:46:01;;;;;;;36.13;20.57;;;;;;;2.05;82.71;101904.02;1785034;78;25290;-82
2022/11/30 03:48:27;;;;;;;36.25;21.77;;;;;;;2.07;82.83;101903.94;1794067;78;26465;-82
2022/11/30 03:50:54;;;;;;;39.55;24.00;;;;;;;2.08;82.80;101910.43;1808700;78;25802;-83
2022/11/30 03:53:22;;;;;;;40.43;23.67;;;;;;;2.10;82.84;101907.67;1800771;78;25747;-82
2022/11/30 03:55:54;;;;;;;39.18;23.87;;;;;;;2.11;82.89;101912.88;1796154;78;27432;-82
2022/11/30 03:58:22;;;;;;;33.48;19.42;;;;;;;2.14;82.90;101913.98;1784494;78;25813;-83
2022/11/30 04:00:49;;;;;;;42.83;22.32;;;;;;;2.14;82.78;101911.81;1800816;78;25779;-82
2022/11/30 04:03:16;;;;;;;45.85;24.12;;;;;;;2.11;82.66;101911.56;1784392;78;25900;-82
2022/11/30 04:05:42;;;;;;;44.42;25.72;;;;;;;2.08;82.55;101913.54;1800327;78;26109;-82
2022/11/30 04:08:09;;;;;;;44.90;25.45;;;;;;;2.06;82.76;101913.65;1779993;78;27425;-81
2022/11/30 04:10:35;;;;;;;50.40;28.90;;;;;;;2.07;82.84;101912.72;1781415;78;26008;-82
2022/11/30 04:13:01;;;;;;;45.33;26.07;;;;;;;2.10;82.99;101915.14;1790956;78;25880;-81
2022/11/30 04:15:27;;;;;;;43.02;25.05;;;;;;;2.10;82.92;101915.61;1787574;78;26052;-82
2022/11/30 04:17:54;;;;;;;44.70;25.12;;;;;;;2.09;83.09;101912.14;1790972;78;26065;-82
2022/11/30 04:20:20;;;;;;;42.03;23.65;;;;;;;2.09;83.05;101917.42;1799555;78;27423;-82
2022/11/30 04:22:46;;;;;;;45.95;24.87;;;;;;;2.10;82.93;101917.78;1789853;78;25812;-82
2022/11/30 04:25:12;;;;;;;55.25;26.25;;;;;;;2.11;82.99;101911.56;1750549;79;26214;-82
2022/11/30 04:27:39;;;;;;;112.60;38.83;;;;;;;2.12;83.05;101917.20;1769738;79;25773;-83
2022/11/30 04:30:08;;;;;;;105.50;37.13;;;;;;;2.15;83.08;101920.98;1761012;79;25891;-82
2022/11/30 04:32:34;;;;;;;93.27;37.80;;;;;;;2.17;83.04;101924.84;1759899;79;27451;-82
2022/11/30 04:35:01;;;;;;;105.40;40.80;;;;;;;2.17;83.25;101926.16;1772296;79;25336;-81
2022/11/30 04:37:27;;;;;;;54.45;29.70;;;;;;;2.20;83.31;101928.61;1772989;78;26462;-81
2022/11/30 04:39:53;;;;;;;51.10;27.95;;;;;;;2.20;83.09;101931.25;1777452;79;25708;-82
2022/11/30 04:42:20;;;;;;;40.00;22.45;;;;;;;2.17;82.99;101932.30;1773770;80;25741;-83
2022/11/30 04:44:46;;;;;;;37.58;22.20;;;;;;;2.14;82.82;101929.84;1771906;79;27456;-82
2022/11/30 04:47:12;;;;;;;35.50;21.50;;;;;;;2.09;82.59;101932.43;1776288;78;26079;-82
2022/11/30 04:49:38;;;;;;;37.00;21.37;;;;;;;2.03;82.48;101934.98;1765749;80;25862;-83
2022/11/30 04:52:05;;;;;;;42.38;23.83;;;;;;;2.01;82.54;101928.13;1777989;79;25709;-82
2022/11/30 04:54:31;;;;;;;38.30;22.95;;;;;;;2.00;82.76;101925.95;1772038;79;26208;-83
2022/11/30 04:56:57;;;;;;;35.80;20.90;;;;;;;2.00;82.72;101928.59;1787434;79;27375;-82
2022/11/30 04:59:23;;;;;;;34.58;19.82;;;;;;;2.04;82.92;101925.27;1781990;79;26446;-81
2022/11/30 05:01:50;;;;;;;32.78;20.25;;;;;;;2.05;82.74;101927.80;1787233;79;26239;-83
2022/11/30 05:04:16;;;;;;;31.23;19.17;;;;;;;2.04;82.70;101926.12;1756059;79;26004;-82
2022/11/30 05:06:42;;;;;;;33.70;20.02;;;;;;;2.03;82.62;101932.33;1768526;79;25736;-82
2022/11/30 05:09:08;;;;;;;36.75;21.57;;;;;;;2.05;82.76;101925.16;1789120;79;27442;-82
2022/11/30 05:11:35;;;;;;;46.23;25.27;;;;;;;2.08;82.80;101928.08;1791368;79;25793;-82
2022/11/30 05:14:01;;;;;;;39.23;22.70;;;;;;;2.09;82.81;101932.43;1788019;79;25834;-82
2022/11/30 05:16:27;;;;;;;41.05;24.18;;;;;;;2.09;82.89;101935.92;1770607;79;26251;-82
2022/11/30 05:18:54;;;;;;;36.93;20.92;;;;;;;2.11;82.85;101940.64;1766920;79;25796;-82
2022/11/30 05:21:20;;;;;;;36.17;21.33;;;;;;;2.11;82.73;101934.03;1762870;79;27464;-82
2022/11/30 05:23:47;;;;;;;33.42;20.50;;;;;;;2.10;82.63;101931.00;1767101;79;26057;-82
2022/11/30 05:26:14;;;;;;;37.53;22.07;;;;;;;2.11;82.57;101936.67;1776707;78;25341;-82
2022/11/30 05:28:41;;;;;;;39.92;22.85;;;;;;;2.13;82.72;101940.53;1754934;80;25798;-82
2022/11/30 05:31:07;;;;;;;36.55;21.37;;;;;;;2.14;82.56;101935.13;1748016;80;25972;-82
2022/11/30 05:33:33;;;;;;;39.80;24.15;;;;;;;2.11;82.37;101939.31;1776110;78;28224;-83
2022/11/30 05:36:00;;;;;;;36.85;21.68;;;;;;;2.10;82.45;101942.89;1776404;78;26141;-83
2022/11/30 05:38:26;;;;;;;36.28;21.07;;;;;;;2.11;82.51;101954.31;1754139;80;25739;-83
2022/11/30 05:41:01;;;;;;;36.93;21.68;;;;;;;2.11;82.40;101952.53;1750491;80;25976;-82
2022/11/30 05:43:27;;;;;;;44.03;23.35;;;;;;;2.09;82.34;101951.78;1753331;80;25956;-82
2022/11/30 05:46:02;;;;;;;40.30;22.95;;;;;;;2.11;82.54;101946.39;1760454;79;27512;-82
2022/11/30 05:48:28;;;;;;;35.33;20.70;;;;;;;2.13;82.57;101951.95;1735161;80;26022;-83
2022/11/30 05:50:55;;;;;;;40.70;21.97;;;;;;;2.14;82.68;101960.70;1763166;79;25685;-82
2022/11/30 05:53:21;;;;;;;44.83;27.65;;;;;;;2.16;82.81;101956.20;1767217;79;26477;-81
2022/11/30 05:55:47;;;;;;;39.85;23.80;;;;;;;2.16;82.81;101964.95;1768096;79;26541;-82
2022/11/30 05:58:13;;;;;;;38.17;23.67;;;;;;;2.19;82.68;101958.63;1782899;78;27976;-82
2022/11/30 06:00:40;;;;;;;42.60;26.82;;;;;;;2.19;82.61;101959.95;1772243;78;25320;-82
2022/11/30 06:03:06;;;;;;;32.88;20.02;;;;;;;2.19;82.54;101962.59;1769306;80;25940;-81
2022/11/30 06:05:35;;;;;;;34.90;21.62;;;;;;;2.16;82.25;101962.30;1770813;80;26581;-83
2022/11/30 06:08:01;;;;;;;33.50;18.17;;;;;;;2.14;82.27;101964.20;1773189;79;25846;-82
2022/11/30 06:10:27;;;;;;;36.10;20.23;;;;;;;2.13;82.14;101960.35;1768440;78;27459;-82
2022/11/30 06:12:54;;;;;;;39.55;24.47;;;;;;;2.11;82.11;101964.89;1773775;79;25912;-83
2022/11/30 06:15:20;;;;;;;39.38;22.70;;;;;;;2.13;82.30;101964.31;1779840;79;25558;-82
2022/11/30 06:17:46;;;;;;;36.35;22.02;;;;;;;2.14;82.21;101964.20;1773569;78;25763;-82
2022/11/30 06:20:13;;;;;;;39.23;23.18;;;;;;;2.15;82.21;101972.98;1746228;80;26416;-83
2022/11/30 06:22:39;;;;;;;41.70;24.23;;;;;;;2.13;82.15;101970.45;1744408;80;27533;-82
2022/11/30 06:25:06;;;;;;;41.18;24.55;;;;;;;2.15;82.40;101972.98;1742480;80;25953;-82
2022/11/30 06:27:32;;;;;;;37.50;21.23;;;;;;;2.16;82.30;101974.20;1759095;79;25825;-83
2022/11/30 06:29:59;;;;;;;38.35;21.55;;;;;;;2.14;82.36;101973.92;1764825;79;26030;-81
2022/11/30 06:32:25;;;;;;;41.18;22.65;;;;;;;2.16;82.47;101979.48;1749932;81;25790;-83
2022/11/30 06:34:51;;;;;;;42.08;23.50;;;;;;;2.16;82.43;101977.34;1763473;80;28621;-82
2022/11/30 06:37:18;;;;;;;51.90;30.85;;;;;;;2.15;82.32;101976.95;1755242;79;26550;-82
2022/11/30 06:39:44;;;;;;;50.78;32.28;;;;;;;2.15;82.28;101977.81;1762394;80;25787;-82
2022/11/30 06:42:10;;;;;;;52.43;33.67;;;;;;;2.14;82.37;101984.03;1753694;80;26702;-82
2022/11/30 06:44:37;;;;;;;45.73;29.48;;;;;;;2.16;82.49;101983.95;1760653;79;26008;-82
2022/11/30 06:47:03;;;;;;;41.02;24.80;;;;;;;2.18;82.54;101984.20;1760502;79;27446;-83
2022/11/30 06:49:29;;;;;;;39.15;23.80;;;;;;;2.21;82.49;101990.63;1760145;79;26498;-82
2022/11/30 06:51:55;;;;;;;34.35;19.55;;;;;;;2.23;82.54;101990.52;1757268;79;25865;-82
2022/11/30 06:54:22;;;;;;;32.88;21.68;;;;;;;2.23;82.42;101993.16;1765802;79;26592;-82
2022/11/30 06:56:48;;;;;;;32.78;19.42;;;;;;;2.22;82.08;101991.48;1755283;79;25869;-82
2022/11/30 06:59:14;;;;;;;38.28;19.90;;;;;;;2.20;82.17;101992.05;1748089;80;27461;-82
2022/11/30 07:01:40;;;;;;;25.68;16.48;;;;;;;2.22;82.51;101993.63;1747360;80;25801;-82
2022/11/30 07:04:07;;;;;;;31.82;18.67;;;;;;;2.26;82.31;101991.66;1749443;80;26457;-81
2022/11/30 07:06:33;;;;;;;33.00;20.20;;;;;;;2.26;82.12;101993.83;1763919;80;26543;-82
2022/11/30 07:08:59;;;;;;;38.63;23.57;;;;;;;2.29;82.57;102001.54;1760255;79;25325;-82
2022/11/30 07:11:26;;;;;;;41.15;23.83;;;;;;;2.34;82.55;101999.92;1762877;79;27930;-82
2022/11/30 07:13:52;;;;;;;46.00;26.85;;;;;;;2.38;82.58;102004.53;1754759;79;25888;-82
2022/11/30 07:16:18;;;;;;;52.65;29.00;;;;;;;2.42;82.49;101996.30;1753379;79;25841;-82
2022/11/30 07:18:45;;;;;;;36.40;21.45;;;;;;;2.45;82.41;101996.58;1773156;79;25836;-81
2022/11/30 07:21:11;;;;;;;37.78;21.42;;;;;;;2.41;81.78;101993.77;1758036;79;26075;-82
2022/11/30 07:26:23;;;;;;;41.48;22.95;;;;;;;2.40;81.95;101999.52;1744685;79;26592;-82
2022/11/30 07:28:56;;;;;;;41.88;24.40;;;;;;;2.41;81.99;101996.41;1744545;79;25310;-81
2022/11/30 07:31:29;;;;;;;41.77;23.73;;;;;;;2.43;82.11;101998.01;1750974;79;27448;-81
2022/11/30 07:33:58;;;;;;;37.08;22.10;;;;;;;2.45;82.21;101993.93;1773429;79;25483;-82
2022/11/30 07:36:26;;;;;;;38.33;22.52;;;;;;;2.47;82.01;101995.53;1746393;79;27458;-82
2022/11/30 07:38:52;;;;;;;36.90;22.37;;;;;;;2.48;82.04;101995.06;1753392;79;26033;-82
2022/11/30 07:41:18;;;;;;;30.72;19.75;;;;;;;2.49;82.03;101994.95;1760928;79;25794;-82
2022/11/30 07:43:44;;;;;;;35.85;21.02;;;;;;;2.47;81.84;101999.97;1758652;79;26462;-82
2022/11/30 07:46:13;;;;;;;32.67;20.10;;;;;;;2.46;81.67;102000.44;1754444;79;25956;-81
2022/11/30 07:48:40;;;;;;;32.20;19.57;;;;;;;2.44;81.71;102001.51;1755606;80;27468;-82
2022/11/30 07:51:10;;;;;;;35.35;21.82;;;;;;;2.46;81.81;102004.90;1752315;79;25824;-82
2022/11/30 07:53:36;;;;;;;;;;;;;;;2.48;81.89;102003.00;1753711;79;25939;-82
2022/11/30 07:56:11;;;;;;;55.95;29.37;;;;;;;2.49;81.97;102001.56;1757620;79;25883;-82
2022/11/30 07:58:38;;;;;;;178.18;65.85;;;;;;;2.49;82.01;102006.86;1762946;79;25697;-82
2022/11/30 08:01:08;;;;;;;159.12;67.30;;;;;;;2.51;82.00;102008.06;1758177;79;27447;-81
2022/11/30 08:03:35;;;;;;;50.75;27.52;;;;;;;2.51;81.89;101999.66;1760877;79;25850;-82
2022/11/30 08:06:09;;;;;;;36.30;22.55;;;;;;;2.50;81.85;102007.25;1762895;80;25752;-82
2022/11/30 08:08:39;;;;;;;71.47;38.78;;;;;;;2.50;81.80;102005.92;1754964;79;25812;-82
2022/11/30 08:11:08;;;;;;;76.30;43.35;;;;;;;2.52;82.04;102008.45;1751876;79;25336;-81
2022/11/30 08:13:34;;;;;;;46.75;26.02;;;;;;;2.54;81.94;102009.20;1761512;79;27418;-82
2022/11/30 08:16:11;;;;;;;33.18;20.52;;;;;;;2.55;82.12;102017.03;1757414;79;25880;-81
2022/11/30 08:18:39;;;;;;;38.28;23.27;;;;;;;2.57;81.91;102011.16;1752961;80;26481;-82
2022/11/30 08:21:08;;;;;;;34.63;19.45;;;;;;;2.57;81.50;102006.33;1759043;80;25927;-82
2022/11/30 08:23:39;;;;;;;32.48;18.30;;;;;;;2.54;81.35;102015.34;1755673;80;25903;-82
2022/11/30 08:26:13;;;;;;;34.65;19.48;;;;;;;2.53;81.51;102016.75;1767944;79;27460;-82
2022/11/30 08:28:42;;;;;;;39.33;20.43;;;;;;;2.54;81.51;102015.81;1768664;79;25864;-82
2022/11/30 08:31:16;;;;;;;28.87;18.52;;;;;;;2.52;81.45;102017.25;1777007;78;25681;-82
2022/11/30 08:33:42;;;;;;;26.12;15.32;;;;;;;2.54;81.51;102018.45;1745819;80;26386;-81
2022/11/30 08:36:21;;;;;;;27.85;18.30;;;;;;;2.53;81.19;102014.10;1719973;81;26135;-82
2022/11/30 08:38:48;;;;;;;28.32;18.77;;;;;;;2.51;81.35;102012.03;1766459;79;27455;-82
2022/11/30 08:41:18;;;;;;;30.23;18.65;;;;;;;2.53;81.40;102017.60;1787025;78;25842;-81
2022/11/30 08:43:45;;;;;;;28.40;17.90;;;;;;;2.54;81.20;102019.78;1778747;78;25823;-81
2022/11/30 08:46:14;;;;;;;32.95;19.02;;;;;;;2.54;81.36;102017.99;1774286;78;25760;-83
2022/11/30 08:48:41;;;;;;;34.50;19.65;;;;;;;2.56;81.43;102021.84;1779182;78;25804;-82
2022/11/30 08:51:11;;;;;;;28.47;17.55;;;;;;;2.59;81.56;102029.59;1776952;78;27333;-81
2022/11/30 08:53:38;;;;;;;31.35;18.52;;;;;;;2.60;81.74;102020.70;1785721;78;26341;-81
2022/11/30 08:56:09;;;;;;;33.53;18.17;;;;;;;2.64;81.86;102025.69;1757673;80;25882;-82
2022/11/30 08:58:38;;;;;;;28.15;17.62;;;;;;;2.66;81.65;102025.57;1771986;78;25757;-81
2022/11/30 09:01:08;;;;;;;33.18;18.95;;;;;;;2.67;81.55;102026.81;1737388;80;25852;-88
2022/11/30 09:03:35;;;;;;;32.10;17.60;;;;;;;2.66;81.46;102022.46;1772369;80;27564;-85
2022/11/30 09:06:05;;;;;;;31.25;18.87;;;;;;;2.69;81.61;102027.56;1722418;80;26154;-86
2022/11/30 09:08:33;;;;;;;32.25;18.00;;;;;;;2.71;81.74;102029.63;1760970;80;25320;-88
2022/11/30 09:11:15;;;;;;;33.38;19.10;;;;;;;2.72;81.63;102026.48;1743228;80;25783;-85
2022/11/30 09:13:43;;;;;;;33.20;20.10;;;;;;;2.73;81.79;102022.44;1746525;80;25510;-84
2022/11/30 09:16:11;;;;;;;34.53;19.73;;;;;;;2.78;81.77;102028.75;1759930;79;27433;-85
2022/11/30 09:18:38;;;;;;;29.72;18.12;;;;;;;2.78;81.46;102032.22;1729454;79;26527;-86
2022/11/30 09:21:08;;;;;;;28.45;18.17;;;;;;;2.80;81.27;102033.46;1772662;79;25309;-86
2022/11/30 09:23:36;;;;;;;26.68;17.23;;;;;;;2.76;80.89;102027.51;1762793;79;25856;-88
2022/11/30 09:26:06;;;;;;;28.52;16.25;;;;;;;2.77;81.02;102034.52;1772693;79;26155;-86
2022/11/30 09:28:34;;;;;;;30.10;17.70;;;;;;;2.78;80.74;102030.07;1753823;79;27440;-86
2022/11/30 09:31:05;;;;;;;25.40;15.90;;;;;;;2.74;80.71;102033.37;1767175;79;25844;-87
2022/11/30 09:33:33;;;;;;;26.45;15.58;;;;;;;2.71;80.37;102030.95;1733143;80;25829;-86
2022/11/30 09:36:03;;;;;;;30.05;17.07;;;;;;;2.69;80.51;102034.64;1736197;82;25773;-87
2022/11/30 09:38:29;;;;;;;29.75;17.37;;;;;;;2.70;80.75;102034.53;1742110;81;26349;-87
2022/11/30 09:41:06;;;;;;;29.70;16.93;;;;;;;2.72;80.85;102034.42;1741552;82;27449;-86
2022/11/30 09:43:52;;;;;;;31.10;17.55;;;;;;;2.75;80.99;102034.23;1735447;80;25836;-87
2022/11/30 09:46:23;;;;;;;32.60;18.85;;;;;;;2.76;81.04;102031.47;1724876;83;25875;-86
2022/11/30 09:49:10;;;;;;;34.33;20.10;;;;;;;2.79;80.84;102025.14;1795996;77;26673;-86
2022/11/30 09:51:45;;;;;;;31.57;19.23;;;;;;;2.78;80.54;102026.11;1791581;77;26159;-85
2022/11/30 09:54:20;;;;;;;30.60;17.77;;;;;;;2.79;80.67;102032.61;1803253;77;27606;-87
2022/11/30 09:56:46;;;;;;;33.88;20.00;;;;;;;2.82;80.62;102027.59;1815103;77;26289;-87
2022/11/30 09:59:25;;;;;;;38.38;20.88;;;;;;;2.83;80.69;102026.63;1796827;77;26435;-87
2022/11/30 10:01:52;;;;;;;36.85;20.52;;;;;;;2.83;80.63;102034.56;1818950;77;26048;-87
2022/11/30 10:04:26;;;;;;;40.15;23.47;;;;;;;2.85;80.85;102032.66;1813999;77;25315;-84
2022/11/30 10:07:27;;;;;;;45.30;23.95;;;;;;;2.87;81.00;102028.11;1812286;77;27378;-88
2022/11/30 10:09:58;;;;;;;38.50;23.20;;;;;;;2.89;81.09;102032.36;1816057;77;26004;-87
2022/11/30 10:12:39;;;;;;;43.23;24.60;;;;;;;2.90;81.18;102027.92;1803098;77;47537;-87
2022/11/30 10:16:03;;;;;;;37.53;22.80;;;;;;;2.91;81.14;102021.19;1831468;77;25747;-88
2022/11/30 10:18:53;;;;;;;40.43;23.60;;;;;;;2.91;81.25;102022.98;1817273;77;25722;-88
2022/11/30 10:21:52;;;;;;;53.40;27.55;;;;;;;2.93;81.47;102025.91;1812719;78;27534;-88
2022/11/30 10:24:38;;;;;;;57.00;28.15;;;;;;;2.96;81.62;102020.41;1731726;78;25844;-88
2022/11/30 10:27:16;;;;;;;51.50;27.15;;;;;;;2.98;81.57;102021.62;1718539;80;25971;-88
2022/11/30 10:29:43;;;;;;;46.05;26.35;;;;;;;3.00;81.61;102011.78;1763413;80;25818;-89
2022/11/30 10:32:18;;;;;;;47.23;28.25;;;;;;;2.99;81.46;102018.05;1793832;78;26043;-88
2022/11/30 10:34:50;;;;;;;45.03;25.80;;;;;;;3.00;81.61;102015.75;1778561;78;27481;-87
2022/11/30 10:37:35;;;;;;;44.15;25.70;;;;;;;3.00;81.45;102019.25;1779749;80;25605;-87
2022/11/30 10:40:31;;;;;;;37.78;23.20;;;;;;;3.00;81.60;102016.61;1768914;78;26000;-87
2022/11/30 10:43:22;;;;;;;41.37;24.80;;;;;;;2.98;81.28;102013.22;1785695;78;26381;-88
2022/11/30 10:45:49;;;;;;;36.42;22.40;;;;;;;2.97;81.39;102017.30;1765802;80;25844;-87
2022/11/30 10:48:42;;;;;;;37.85;22.70;;;;;;;2.96;81.45;102018.23;1780199;80;27451;-87
2022/11/30 10:51:10;;;;;;;38.20;21.60;;;;;;;2.94;81.44;102014.38;1771104;80;25853;-88
2022/11/30 10:53:37;;;;;;;45.95;27.62;;;;;;;2.91;81.20;102021.66;1763091;80;25823;-87
2022/11/30 10:56:12;;;;;;;82.72;43.02;;;;;;;2.90;81.40;102022.63;1780160;78;25900;-87
2022/11/30 10:59:02;;;;;;;52.90;30.60;;;;;;;2.91;81.58;102027.80;1737737;80;26425;-87
2022/11/30 11:01:38;;;;;;;78.62;44.03;;;;;;;2.93;81.68;102025.08;1770327;79;27476;-87
2022/11/30 11:04:24;;;;;;;45.00;25.77;;;;;;;2.92;81.57;102024.23;1775388;80;25315;-86
2022/11/30 11:06:58;;;;;;;47.83;29.63;;;;;;;2.90;81.50;102026.13;1777962;79;25319;-86
2022/11/30 11:09:38;;;;;;;100.97;66.25;;;;;;;2.89;81.60;102023.56;1784159;79;25772;-85
2022/11/30 11:12:21;;;;;;;92.57;64.37;;;;;;;2.87;81.48;102033.41;1778125;79;25303;-87
2022/11/30 11:14:47;;;;;;;62.38;45.33;;;;;;;2.86;81.42;102024.64;1778012;79;27477;-86
2022/11/30 11:17:21;;;;;;;40.67;26.70;;;;;;;2.86;81.36;102025.97;1768838;79;25951;-85
2022/11/30 11:19:49;;;;;;;37.53;24.23;;;;;;;2.83;81.45;102025.30;1764637;79;25779;-86
2022/11/30 11:22:25;;;;;;;36.58;22.55;;;;;;;2.81;81.58;102020.13;1769021;79;25840;-86
2022/11/30 11:25:09;;;;;;;37.42;21.85;;;;;;;2.82;81.50;102018.33;1755899;79;25771;-87
2022/11/30 11:27:35;;;;;;;36.38;21.55;;;;;;;2.79;81.40;102020.70;1769233;79;28299;-85
2022/11/30 11:30:16;;;;;;;41.33;23.70;;;;;;;2.75;81.43;102023.65;1793580;79;26433;-85
2022/11/30 11:33:14;;;;;;;33.73;20.68;;;;;;;2.74;81.60;102016.18;1750491;80;25791;-87
2022/11/30 11:35:51;;;;;;;40.95;23.73;;;;;;;2.73;81.50;102021.58;1761995;79;25787;-87